createdAt,value
2024-02-13T00:00:12.062Z,10.70
2024-02-13T00:02:13.754Z,10.67
2024-02-13T00:04:15.608Z,10.65
2024-02-13T00:06:17.292Z,10.65
2024-02-13T00:08:19.138Z,10.65
2024-02-13T00:10:21.010Z,10.65
2024-02-13T00:12:22.646Z,10.63
2024-02-13T00:14:24.376Z,10.63
2024-02-13T00:16:27.428Z,10.60
2024-02-13T00:18:29.235Z,10.61
2024-02-13T00:20:30.952Z,10.58
2024-02-13T00:22:32.684Z,10.56
2024-02-13T00:24:34.534Z,10.51
2024-02-13T00:26:36.162Z,10.49
2024-02-13T00:28:38.259Z,10.52
2024-02-13T00:30:39.928Z,10.48
2024-02-13T00:32:42.996Z,10.47
2024-02-13T00:34:44.754Z,10.44
2024-02-13T00:36:49.316Z,10.44
2024-02-13T00:38:50.988Z,10.42
2024-02-13T00:40:52.651Z,10.42
2024-02-13T00:42:54.302Z,10.41
2024-02-13T00:44:56.053Z,10.41
2024-02-13T00:46:57.730Z,10.43
2024-02-13T00:49:00.767Z,10.40
2024-02-13T00:51:02.640Z,10.37
2024-02-13T00:53:04.702Z,10.34
2024-02-13T00:55:06.873Z,10.33
2024-02-13T00:57:08.483Z,10.35
2024-02-13T00:59:10.601Z,10.35
2024-02-13T01:01:12.270Z,10.32
2024-02-13T01:03:13.996Z,10.28
2024-02-13T01:05:17.028Z,10.28
2024-02-13T01:07:19.217Z,10.27
2024-02-13T01:09:20.865Z,10.24
2024-02-13T01:11:22.654Z,10.22
2024-02-13T01:13:24.254Z,10.20
2024-02-13T01:15:25.979Z,10.17
2024-02-13T01:17:27.834Z,10.11
2024-02-13T01:19:29.553Z,10.07
2024-02-13T01:21:32.587Z,10.04
2024-02-13T01:23:34.322Z,10.00
2024-02-13T01:25:35.998Z,9.96
2024-02-13T01:27:37.789Z,9.93
2024-02-13T01:29:39.480Z,9.93
2024-02-13T01:31:41.125Z,9.93
2024-02-13T01:33:43.114Z,9.95
2024-02-13T01:35:45.018Z,9.93
2024-02-13T01:37:48.099Z,9.93
2024-02-13T01:39:49.793Z,9.93
2024-02-13T01:41:51.589Z,9.94
2024-02-13T01:43:53.262Z,9.94
2024-02-13T01:45:56.967Z,9.93
2024-02-13T01:47:59.846Z,9.91
2024-02-13T01:50:01.646Z,9.88
2024-02-13T01:52:04.626Z,9.87
2024-02-13T01:54:08.976Z,9.86
2024-02-13T01:56:11.596Z,9.87
2024-02-13T01:58:13.878Z,9.88
2024-02-13T02:00:16.037Z,9.87
2024-02-13T02:02:17.738Z,9.84
2024-02-13T02:04:19.796Z,9.83
2024-02-13T02:06:21.722Z,9.81
2024-02-13T02:08:23.497Z,9.79
2024-02-13T02:10:26.526Z,9.78
2024-02-13T02:12:28.218Z,9.77
2024-02-13T02:14:30.052Z,9.76
2024-02-13T02:16:31.673Z,9.71
2024-02-13T02:18:33.532Z,9.70
2024-02-13T02:20:36.853Z,9.68
2024-02-13T02:22:38.604Z,9.64
2024-02-13T02:24:40.223Z,9.61
2024-02-13T02:26:43.273Z,9.56
2024-02-13T02:28:45.105Z,9.58
2024-02-13T02:30:47.775Z,9.53
2024-02-13T02:32:49.675Z,9.54
2024-02-13T02:34:51.399Z,9.49
2024-02-13T02:36:53.089Z,9.49
2024-02-13T02:38:54.969Z,9.49
2024-02-13T02:40:56.744Z,9.46
2024-02-13T02:42:59.774Z,9.45
2024-02-13T02:45:01.431Z,9.41
2024-02-13T02:47:03.376Z,9.37
2024-02-13T02:49:05.015Z,9.35
2024-02-13T02:51:06.809Z,9.42
2024-02-13T02:53:08.473Z,9.43
2024-02-13T02:55:10.105Z,9.38
2024-02-13T02:57:11.691Z,9.41
2024-02-13T02:59:14.745Z,9.40
2024-02-13T03:01:16.440Z,9.40
2024-02-13T03:03:18.272Z,9.41
2024-02-13T03:05:20.084Z,9.43
2024-02-13T03:07:21.910Z,9.43
2024-02-13T03:09:25.920Z,9.44
2024-02-13T03:11:27.641Z,9.43
2024-02-13T03:13:29.341Z,9.42
2024-02-13T03:15:32.320Z,9.46
2024-02-13T03:17:34.305Z,9.45
2024-02-13T03:19:36.028Z,9.44
2024-02-13T03:21:37.670Z,9.45
2024-02-13T03:23:39.449Z,9.45
2024-02-13T03:25:41.067Z,9.43
2024-02-13T03:27:42.735Z,9.43
2024-02-13T03:29:44.401Z,9.44
2024-02-13T03:31:47.364Z,9.44
2024-02-13T03:33:49.099Z,9.43
2024-02-13T03:35:50.795Z,9.41
2024-02-13T03:37:52.400Z,9.40
2024-02-13T03:39:53.994Z,9.40
2024-02-13T03:41:55.591Z,9.38
2024-02-13T03:43:57.221Z,9.37
2024-02-13T03:45:58.840Z,9.36
2024-02-13T03:48:02.030Z,9.36
2024-02-13T03:50:04.231Z,9.36
2024-02-13T03:52:06.283Z,9.33
2024-02-13T03:54:08.400Z,9.33
2024-02-13T03:56:10.074Z,9.31
2024-02-13T03:58:11.770Z,9.30
2024-02-13T04:00:14.226Z,9.31
2024-02-13T04:02:15.911Z,9.26
2024-02-13T04:04:19.012Z,9.29
2024-02-13T04:06:20.894Z,9.31
2024-02-13T04:08:22.647Z,9.32
2024-02-13T04:10:24.301Z,9.31
2024-02-13T04:12:26.024Z,9.31
2024-02-13T04:14:27.889Z,9.28
2024-02-13T04:16:29.686Z,9.29
2024-02-13T04:18:31.343Z,9.26
2024-02-13T04:20:34.313Z,9.25
2024-02-13T04:22:35.933Z,9.24
2024-02-13T04:24:37.570Z,9.22
2024-02-13T04:26:39.800Z,9.20
2024-02-13T04:28:41.464Z,9.18
2024-02-13T04:30:43.006Z,9.20
2024-02-13T04:32:44.751Z,9.16
2024-02-13T04:34:46.523Z,9.16
2024-02-13T04:36:49.633Z,9.14
2024-02-13T04:38:51.432Z,9.14
2024-02-13T04:40:53.157Z,9.14
2024-02-13T04:42:54.798Z,9.15
2024-02-13T04:44:56.510Z,9.11
2024-02-13T04:46:58.194Z,9.06
2024-02-13T04:49:00.004Z,9.07
2024-02-13T04:51:01.731Z,9.07
2024-02-13T04:53:05.011Z,9.05
2024-02-13T04:55:07.310Z,8.99
2024-02-13T04:57:08.899Z,8.94
2024-02-13T04:59:10.560Z,8.95
2024-02-13T05:01:12.625Z,8.93
2024-02-13T05:03:14.202Z,8.92
2024-02-13T05:05:15.994Z,8.92
2024-02-13T05:07:17.575Z,8.93
2024-02-13T05:09:20.542Z,8.93
2024-02-13T05:11:22.335Z,8.89
2024-02-13T05:13:24.067Z,8.89
2024-02-13T05:15:25.643Z,8.91
2024-02-13T05:17:27.416Z,8.93
2024-02-13T05:19:29.403Z,8.89
2024-02-13T05:21:31.035Z,8.87
2024-02-13T05:23:32.698Z,8.82
2024-02-13T05:25:35.681Z,8.84
2024-02-13T05:27:37.280Z,8.86
2024-02-13T05:29:38.958Z,8.86
2024-02-13T05:31:40.573Z,8.87
2024-02-13T05:33:42.408Z,8.87
2024-02-13T05:35:44.145Z,8.85
2024-02-13T05:37:45.821Z,8.88
2024-02-13T05:39:47.514Z,8.88
2024-02-13T05:41:50.565Z,8.84
2024-02-13T05:43:52.190Z,8.85
2024-02-13T05:45:53.906Z,8.85
2024-02-13T05:47:55.602Z,8.84
2024-02-13T05:49:57.184Z,8.84
2024-02-13T05:51:58.842Z,8.84
2024-02-13T05:54:00.669Z,8.84
2024-02-13T05:56:03.362Z,8.86
2024-02-13T05:58:06.404Z,8.87
2024-02-13T06:00:10.834Z,8.88
2024-02-13T06:02:12.821Z,8.87
2024-02-13T06:04:14.466Z,8.83
2024-02-13T06:06:16.215Z,8.84
2024-02-13T06:08:17.957Z,8.83
2024-02-13T06:10:19.613Z,8.84
2024-02-13T06:12:21.457Z,8.84
2024-02-13T06:14:24.540Z,8.87
2024-02-13T06:16:26.279Z,8.85
2024-02-13T06:18:28.191Z,8.87
2024-02-13T06:20:30.038Z,8.81
2024-02-13T06:22:32.807Z,8.79
2024-02-13T06:24:34.583Z,8.82
2024-02-13T06:26:37.276Z,8.80
2024-02-13T06:28:38.971Z,8.79
2024-02-13T06:30:41.940Z,8.76
2024-02-13T06:32:43.671Z,8.77
2024-02-13T06:34:45.732Z,8.74
2024-02-13T06:36:47.435Z,8.73
2024-02-13T06:38:49.022Z,8.72
2024-02-13T06:40:50.768Z,8.70
2024-02-13T06:42:52.427Z,8.75
2024-02-13T06:44:54.188Z,8.69
2024-02-13T06:46:57.582Z,8.70
2024-02-13T06:48:59.361Z,8.72
2024-02-13T06:51:01.478Z,8.71
2024-02-13T06:53:03.488Z,8.74
2024-02-13T06:55:06.045Z,8.75
2024-02-13T06:57:07.937Z,8.74
2024-02-13T06:59:09.608Z,8.74
2024-02-13T07:01:11.319Z,8.71
2024-02-13T07:03:14.707Z,8.68
2024-02-13T07:05:16.418Z,8.70
2024-02-13T07:07:28.983Z,8.74
2024-02-13T07:09:39.606Z,8.74
2024-02-13T07:11:41.381Z,8.75
2024-02-13T07:13:43.483Z,8.76
2024-02-13T07:15:45.320Z,8.77
2024-02-13T07:17:55.905Z,8.79
2024-02-13T07:20:03.944Z,8.82
2024-02-13T07:22:05.764Z,8.84
2024-02-13T07:24:08.264Z,8.83
2024-02-13T07:26:10.374Z,8.82
2024-02-13T07:28:12.245Z,8.80
2024-02-13T07:30:14.320Z,8.80
2024-02-13T07:32:16.295Z,8.82
2024-02-13T07:34:17.994Z,8.83
2024-02-13T07:36:21.103Z,8.83
2024-02-13T07:38:23.043Z,8.89
2024-02-13T07:40:26.714Z,8.84
2024-02-13T07:42:28.631Z,8.83
2024-02-13T07:44:30.369Z,8.85
2024-02-13T07:46:32.135Z,8.86
2024-02-13T07:48:33.940Z,8.91
2024-02-13T07:50:35.768Z,8.93
2024-02-13T07:52:39.029Z,8.94
2024-02-13T07:54:40.684Z,8.98
2024-02-13T07:56:42.428Z,9.01
2024-02-13T07:58:44.349Z,9.02
2024-02-13T08:00:46.173Z,9.05
2024-02-13T08:02:49.614Z,9.05
2024-02-13T08:04:51.331Z,9.07
2024-02-13T08:06:56.344Z,9.07
2024-02-13T08:08:59.631Z,9.07
2024-02-13T08:11:01.361Z,9.11
2024-02-13T08:13:03.041Z,9.16
2024-02-13T08:15:05.655Z,9.23
2024-02-13T08:17:07.433Z,9.19
2024-02-13T08:19:09.494Z,9.28
2024-02-13T08:21:11.286Z,9.31
2024-02-13T08:23:13.112Z,9.32
2024-02-13T08:25:16.298Z,9.37
2024-02-13T08:27:18.009Z,9.41
2024-02-13T08:29:20.035Z,9.49
2024-02-13T08:31:21.870Z,9.56
2024-02-13T08:33:23.996Z,9.58
2024-02-13T08:35:26.336Z,9.61
2024-02-13T08:37:28.382Z,9.65
2024-02-13T08:39:30.286Z,9.66
2024-02-13T08:41:34.158Z,9.71
2024-02-13T08:43:35.982Z,9.83
2024-02-13T08:45:37.867Z,9.91
2024-02-13T08:47:40.063Z,9.95
2024-02-13T08:49:42.027Z,9.99
2024-02-13T08:51:44.141Z,10.03
2024-02-13T08:53:46.358Z,10.02
2024-02-13T08:55:48.077Z,9.93
2024-02-13T08:57:51.207Z,10.01
2024-02-13T08:59:54.454Z,10.15
2024-02-13T09:01:57.835Z,10.30
2024-02-13T09:03:59.961Z,10.38
2024-02-13T09:06:01.939Z,10.55
2024-02-13T09:08:04.085Z,10.75
2024-02-13T09:10:06.634Z,10.92
2024-02-13T09:12:09.133Z,11.03
2024-02-13T09:14:12.588Z,11.13
2024-02-13T09:16:14.429Z,11.22
2024-02-13T09:18:16.288Z,11.32
2024-02-13T09:20:18.328Z,11.36
2024-02-13T09:22:20.107Z,11.54
2024-02-13T09:24:22.916Z,11.61
2024-02-13T09:26:24.820Z,11.68
2024-02-13T09:28:27.414Z,11.70
2024-02-13T09:30:30.700Z,11.89
2024-02-13T09:32:32.604Z,11.96
2024-02-13T09:34:34.632Z,12.00
2024-02-13T09:36:37.858Z,12.16
2024-02-13T09:38:40.368Z,12.32
2024-02-13T09:40:42.088Z,12.27
2024-02-13T09:42:45.074Z,12.14
2024-02-13T09:44:47.079Z,12.13
2024-02-13T09:46:51.500Z,12.13
2024-02-13T09:48:56.309Z,12.20
2024-02-13T09:51:02.630Z,12.29
2024-02-13T09:53:08.885Z,12.29
2024-02-13T09:55:11.602Z,12.27
2024-02-13T09:57:13.918Z,12.21
2024-02-13T09:59:15.881Z,12.19
2024-02-13T10:01:17.972Z,12.30
2024-02-13T10:03:21.437Z,12.32
2024-02-13T10:05:23.423Z,12.38
2024-02-13T10:07:25.507Z,12.34
2024-02-13T10:09:30.262Z,12.60
2024-02-13T10:11:33.032Z,12.62
2024-02-13T10:13:35.714Z,12.88
2024-02-13T10:15:38.343Z,12.95
2024-02-13T10:17:40.187Z,13.11
2024-02-13T10:19:43.556Z,13.23
2024-02-13T10:21:45.427Z,13.26
2024-02-13T10:23:47.427Z,13.47
2024-02-13T10:25:49.301Z,13.64
2024-02-13T10:27:51.183Z,13.79
2024-02-13T10:29:53.013Z,13.89
2024-02-13T10:32:04.837Z,13.97
2024-02-13T10:34:09.849Z,14.12
2024-02-13T10:36:13.051Z,14.23
2024-02-13T10:38:15.915Z,14.25
2024-02-13T10:40:20.872Z,14.28
2024-02-13T10:42:23.715Z,14.26
2024-02-13T10:44:29.269Z,14.24
2024-02-13T10:46:32.598Z,14.25
2024-02-13T10:48:41.961Z,14.13
2024-02-13T10:50:44.813Z,14.12
2024-02-13T10:52:52.075Z,14.13
2024-02-13T10:54:56.639Z,14.12
2024-02-13T10:57:00.270Z,14.09
2024-02-13T10:59:02.400Z,14.04
2024-02-13T11:01:06.538Z,14.03
2024-02-13T11:03:10.042Z,14.08
2024-02-13T11:05:11.909Z,14.23
2024-02-13T11:07:14.502Z,14.15
2024-02-13T11:09:18.071Z,14.24
2024-02-13T11:11:20.114Z,14.39
2024-02-13T11:13:22.039Z,14.48
2024-02-13T11:15:27.301Z,14.60
2024-02-13T11:17:31.538Z,14.65
2024-02-13T11:19:45.019Z,14.83
2024-02-13T11:21:48.615Z,15.03
2024-02-13T11:23:53.349Z,15.19
2024-02-13T11:26:00.104Z,15.10
2024-02-13T11:28:04.862Z,15.05
2024-02-13T11:30:08.005Z,15.09
2024-02-13T11:32:09.777Z,15.10
2024-02-13T11:34:12.230Z,15.11
2024-02-13T11:36:14.873Z,14.95
2024-02-13T11:38:19.028Z,14.99
2024-02-13T11:40:20.837Z,14.90
2024-02-13T11:42:24.198Z,14.78
2024-02-13T11:44:26.009Z,14.58
2024-02-13T11:46:27.879Z,14.42
2024-02-13T11:48:32.819Z,14.32
2024-02-13T11:50:37.152Z,14.41
2024-02-13T11:52:39.222Z,14.27
2024-02-13T11:54:41.343Z,14.13
2024-02-13T11:56:43.694Z,13.97
2024-02-13T11:58:46.815Z,13.81
2024-02-13T12:00:58.657Z,13.91
2024-02-13T12:03:00.476Z,13.81
2024-02-13T12:05:02.382Z,13.70
2024-02-13T12:07:04.509Z,13.59
2024-02-13T12:09:07.329Z,13.53
2024-02-13T12:11:09.778Z,13.61
2024-02-13T12:13:12.510Z,13.80
2024-02-13T12:15:16.136Z,13.94
2024-02-13T12:17:18.171Z,13.91
2024-02-13T12:19:19.997Z,13.85
2024-02-13T12:21:21.761Z,13.85
2024-02-13T12:23:23.473Z,13.85
2024-02-13T12:25:25.168Z,13.78
2024-02-13T12:27:26.867Z,13.76
2024-02-13T12:29:29.225Z,13.77
2024-02-13T12:31:32.972Z,13.81
2024-02-13T12:33:35.126Z,13.79
2024-02-13T12:35:37.005Z,13.75
2024-02-13T12:37:38.730Z,13.76
2024-02-13T12:39:40.456Z,13.79
2024-02-13T12:41:42.190Z,13.84
2024-02-13T12:43:43.879Z,13.83
2024-02-13T12:45:45.571Z,13.81
2024-02-13T12:47:48.752Z,13.76
2024-02-13T12:49:50.689Z,13.72
2024-02-13T12:51:52.744Z,13.64
2024-02-13T12:53:54.507Z,13.62
2024-02-13T12:55:56.428Z,13.61
2024-02-13T12:57:58.388Z,13.46
2024-02-13T13:00:00.482Z,13.30
2024-02-13T13:02:02.484Z,13.16
2024-02-13T13:04:06.359Z,13.10
2024-02-13T13:06:10.147Z,13.11
2024-02-13T13:08:13.511Z,13.04
2024-02-13T13:10:15.494Z,13.06
2024-02-13T13:12:17.320Z,13.12
2024-02-13T13:14:19.101Z,13.14
2024-02-13T13:16:20.812Z,13.19
2024-02-13T13:18:22.491Z,13.20
2024-02-13T13:20:25.966Z,13.21
2024-02-13T13:22:27.787Z,13.16
2024-02-13T13:24:29.505Z,13.17
2024-02-13T13:26:31.300Z,13.17
2024-02-13T13:28:32.939Z,13.18
2024-02-13T13:30:35.042Z,13.27
2024-02-13T13:32:36.884Z,13.32
2024-02-13T13:34:38.831Z,13.33
2024-02-13T13:36:42.404Z,13.34
2024-02-13T13:38:44.399Z,13.37
2024-02-13T13:40:46.322Z,13.39
2024-02-13T13:42:48.092Z,13.41
2024-02-13T13:44:49.872Z,13.43
2024-02-13T13:46:53.313Z,13.46
2024-02-13T13:48:55.074Z,13.52
2024-02-13T13:50:56.928Z,13.51
2024-02-13T13:53:00.134Z,13.55
2024-02-13T13:55:01.878Z,13.56
2024-02-13T13:57:03.668Z,13.58
2024-02-13T13:59:05.488Z,13.58
2024-02-13T14:01:07.544Z,13.56
2024-02-13T14:03:09.276Z,13.56
2024-02-13T14:05:11.039Z,13.60
2024-02-13T14:07:12.923Z,13.64
2024-02-13T14:09:16.011Z,13.67
2024-02-13T14:11:17.724Z,13.68
2024-02-13T14:13:20.247Z,13.75
2024-02-13T14:15:22.066Z,13.79
2024-02-13T14:17:24.054Z,13.80
2024-02-13T14:19:26.242Z,13.83
2024-02-13T14:21:27.862Z,13.83
2024-02-13T14:23:29.399Z,13.80
2024-02-13T14:25:32.988Z,13.74
2024-02-13T14:27:35.079Z,13.72
2024-02-13T14:29:36.994Z,13.69
2024-02-13T14:31:38.870Z,13.62
2024-02-13T14:33:41.074Z,13.57
2024-02-13T14:35:43.133Z,13.53
2024-02-13T14:37:45.666Z,13.46
2024-02-13T14:39:47.513Z,13.39
2024-02-13T14:41:50.736Z,13.33
2024-02-13T14:43:52.706Z,13.32
2024-02-13T14:45:54.516Z,13.30
2024-02-13T14:47:56.453Z,13.32
2024-02-13T14:49:58.577Z,13.34
2024-02-13T14:52:00.465Z,13.33
2024-02-13T14:54:02.453Z,13.33
2024-02-13T14:56:04.746Z,13.36
2024-02-13T14:58:18.254Z,13.39
2024-02-13T15:00:24.485Z,13.35
2024-02-13T15:02:26.775Z,13.36
2024-02-13T15:04:28.504Z,13.35
2024-02-13T15:06:30.180Z,13.32
2024-02-13T15:08:32.113Z,13.31
2024-02-13T15:10:34.099Z,13.35
2024-02-13T15:12:35.918Z,13.36
2024-02-13T15:14:39.711Z,13.33
2024-02-13T15:16:41.554Z,13.32
2024-02-13T15:18:43.544Z,13.33
2024-02-13T15:20:45.779Z,13.37
2024-02-13T15:22:47.567Z,13.37
2024-02-13T15:24:49.416Z,13.36
2024-02-13T15:26:51.488Z,13.37
2024-02-13T15:28:53.412Z,13.38
2024-02-13T15:30:56.777Z,13.39
2024-02-13T15:32:59.100Z,13.40
2024-02-13T15:35:00.948Z,13.43
2024-02-13T15:37:03.290Z,13.42
2024-02-13T15:39:05.325Z,13.43
2024-02-13T15:41:07.498Z,13.44
2024-02-13T15:43:09.493Z,13.46
2024-02-13T15:45:11.452Z,13.54
2024-02-13T15:47:14.633Z,13.62
2024-02-13T15:49:18.450Z,13.69
2024-02-13T15:51:21.709Z,13.72
2024-02-13T15:53:23.616Z,13.71
2024-02-13T15:55:26.683Z,13.75
2024-02-13T15:57:29.697Z,13.72
2024-02-13T15:59:31.459Z,13.76
2024-02-13T16:01:33.351Z,13.77
2024-02-13T16:03:36.781Z,13.80
2024-02-13T16:05:38.699Z,13.79
2024-02-13T16:07:40.427Z,13.80
2024-02-13T16:09:42.586Z,13.81
2024-02-13T16:11:44.459Z,13.78
2024-02-13T16:13:46.528Z,13.78
2024-02-13T16:15:48.308Z,13.77
2024-02-13T16:17:50.081Z,13.76
2024-02-13T16:19:53.332Z,13.74
2024-02-13T16:21:58.045Z,13.54
2024-02-13T16:24:00.078Z,13.42
2024-02-13T16:26:02.189Z,13.40
2024-02-13T16:28:04.672Z,13.35
2024-02-13T16:30:08.030Z,13.28
2024-02-13T16:32:10.910Z,13.20
2024-02-13T16:34:14.870Z,13.17
2024-02-13T16:36:18.552Z,13.17
2024-02-13T16:38:20.374Z,13.13
2024-02-13T16:40:22.125Z,13.08
2024-02-13T16:42:23.836Z,13.03
2024-02-13T16:44:25.710Z,12.99
2024-02-13T16:46:32.818Z,12.99
2024-02-13T16:48:34.538Z,12.98
2024-02-13T16:50:36.440Z,12.96
2024-02-13T16:52:39.679Z,12.94
2024-02-13T16:54:41.951Z,12.91
2024-02-13T16:56:43.750Z,12.85
2024-02-13T16:58:45.645Z,12.86
2024-02-13T17:00:49.419Z,12.81
2024-02-13T17:02:51.913Z,12.75
2024-02-13T17:04:53.771Z,12.70
2024-02-13T17:06:55.622Z,12.66
2024-02-13T17:08:59.027Z,12.61
2024-02-13T17:11:00.814Z,12.58
2024-02-13T17:13:02.532Z,12.58
2024-02-13T17:15:05.238Z,12.64
2024-02-13T17:17:07.002Z,12.61
2024-02-13T17:19:09.098Z,12.57
2024-02-13T17:21:10.994Z,12.56
2024-02-13T17:23:13.121Z,12.50
2024-02-13T17:25:16.662Z,12.44
2024-02-13T17:27:18.621Z,12.47
2024-02-13T17:29:20.528Z,12.44
2024-02-13T17:31:22.378Z,12.44
2024-02-13T17:33:24.241Z,12.41
2024-02-13T17:35:26.295Z,12.34
2024-02-13T17:37:28.219Z,12.36
2024-02-13T17:39:30.443Z,12.36
2024-02-13T17:41:34.323Z,12.36
2024-02-13T17:43:36.219Z,12.31
2024-02-13T17:45:38.059Z,12.28
2024-02-13T17:47:40.198Z,12.23
2024-02-13T17:49:42.001Z,12.22
2024-02-13T17:51:44.283Z,12.22
2024-02-13T17:53:46.137Z,12.21
2024-02-13T17:55:48.115Z,12.15
2024-02-13T17:57:51.469Z,12.12
2024-02-13T17:59:54.857Z,12.07
2024-02-13T18:01:56.639Z,12.02
2024-02-13T18:03:58.820Z,12.00
2024-02-13T18:06:00.826Z,11.97
2024-02-13T18:08:02.809Z,11.93
2024-02-13T18:10:05.811Z,11.91
2024-02-13T18:12:08.139Z,11.92
2024-02-13T18:14:11.605Z,11.91
2024-02-13T18:16:13.318Z,11.89
2024-02-13T18:18:15.282Z,11.89
2024-02-13T18:20:17.448Z,11.87
2024-02-13T18:22:19.269Z,11.85
2024-02-13T18:24:21.155Z,11.83
2024-02-13T18:26:23.292Z,11.79
2024-02-13T18:28:25.240Z,11.78
2024-02-13T18:30:28.698Z,11.79
2024-02-13T18:32:30.760Z,11.72
2024-02-13T18:34:32.960Z,11.68
2024-02-13T18:36:34.861Z,11.68
2024-02-13T18:38:36.768Z,11.69
2024-02-13T18:40:38.516Z,11.67
2024-02-13T18:42:40.377Z,11.64
2024-02-13T18:44:42.396Z,11.63
2024-02-13T18:46:45.723Z,11.63
2024-02-13T18:48:48.041Z,11.61
2024-02-13T18:50:50.240Z,11.57
2024-02-13T18:52:52.446Z,11.54
2024-02-13T18:54:54.324Z,11.51
2024-02-13T18:56:56.745Z,11.51
2024-02-13T18:58:58.848Z,11.48
2024-02-13T19:01:00.556Z,11.46
2024-02-13T19:03:04.268Z,11.42
2024-02-13T19:05:06.915Z,11.38
2024-02-13T19:07:08.942Z,11.36
2024-02-13T19:09:10.946Z,11.31
2024-02-13T19:11:12.930Z,11.30
2024-02-13T19:13:15.447Z,11.25
2024-02-13T19:15:17.320Z,11.21
2024-02-13T19:17:19.402Z,11.19
2024-02-13T19:19:23.123Z,11.17
2024-02-13T19:21:25.438Z,11.13
2024-02-13T19:23:28.044Z,11.10
2024-02-13T19:25:30.560Z,11.08
2024-02-13T19:27:34.452Z,11.04
2024-02-13T19:29:37.854Z,11.01
2024-02-13T19:31:42.640Z,11.01
2024-02-13T19:33:44.625Z,10.99
2024-02-13T19:35:48.209Z,10.98
2024-02-13T19:37:50.995Z,10.91
2024-02-13T19:39:52.889Z,10.88
2024-02-13T19:41:54.921Z,10.87
2024-02-13T19:43:56.822Z,10.83
2024-02-13T19:45:58.890Z,10.84
2024-02-13T19:48:00.950Z,10.81
2024-02-13T19:50:03.965Z,10.80
2024-02-13T19:52:07.739Z,10.76
2024-02-13T19:54:09.768Z,10.71
2024-02-13T19:56:11.794Z,10.70
2024-02-13T19:58:15.196Z,10.70
2024-02-13T20:00:18.161Z,10.65
2024-02-13T20:02:21.032Z,10.65
2024-02-13T20:04:23.857Z,10.61
2024-02-13T20:06:25.572Z,10.59
2024-02-13T20:08:29.552Z,10.57
2024-02-13T20:10:31.421Z,10.55
2024-02-13T20:12:33.648Z,10.53
2024-02-13T20:14:36.454Z,10.57
2024-02-13T20:16:38.774Z,10.53
2024-02-13T20:18:40.952Z,10.54
2024-02-13T20:20:43.127Z,10.55
2024-02-13T20:22:46.849Z,10.48
2024-02-13T20:24:49.999Z,10.45
2024-02-13T20:26:54.314Z,10.43
2024-02-13T20:28:56.263Z,10.42
2024-02-13T20:30:58.228Z,10.38
2024-02-13T20:33:01.391Z,10.36
2024-02-13T20:35:04.024Z,10.36
2024-02-13T20:37:06.161Z,10.35
2024-02-13T20:39:08.547Z,10.32
2024-02-13T20:41:12.625Z,10.27
2024-02-13T20:43:15.087Z,10.26
2024-02-13T20:45:22.253Z,10.24
2024-02-13T20:47:25.431Z,10.24
2024-02-13T20:49:27.662Z,10.15
2024-02-13T20:51:31.592Z,10.10
2024-02-13T20:53:33.659Z,10.06
2024-02-13T20:55:35.738Z,10.03
2024-02-13T20:57:38.883Z,10.03
2024-02-13T20:59:40.772Z,10.04
2024-02-13T21:01:42.783Z,10.06
2024-02-13T21:03:45.005Z,10.04
2024-02-13T21:05:46.778Z,10.00
2024-02-13T21:07:48.900Z,10.00
2024-02-13T21:09:50.722Z,9.99
2024-02-13T21:11:52.842Z,9.99
2024-02-13T21:13:56.277Z,10.00
2024-02-13T21:15:58.491Z,10.00
2024-02-13T21:18:00.504Z,10.00
2024-02-13T21:20:03.175Z,9.99
2024-02-13T21:22:05.439Z,9.99
2024-02-13T21:24:07.767Z,9.97
2024-02-13T21:26:09.662Z,9.98
2024-02-13T21:28:11.420Z,9.94
2024-02-13T21:30:15.112Z,9.95
2024-02-13T21:32:16.981Z,9.94
2024-02-13T21:34:18.901Z,9.95
2024-02-13T21:36:20.962Z,9.97
2024-02-13T21:38:23.131Z,9.97
2024-02-13T21:40:25.444Z,9.98
2024-02-13T21:42:27.291Z,9.99
2024-02-13T21:44:29.137Z,9.96
2024-02-13T21:46:32.647Z,9.98
2024-02-13T21:48:34.837Z,9.99
2024-02-13T21:50:36.646Z,9.98
2024-02-13T21:52:39.420Z,10.02
2024-02-13T21:54:41.130Z,10.00
2024-02-13T21:56:42.861Z,9.96
2024-02-13T21:58:46.326Z,9.88
2024-02-13T22:00:48.890Z,9.85
2024-02-13T22:02:52.988Z,9.80
2024-02-13T22:04:55.764Z,9.75
2024-02-13T22:06:57.497Z,9.72
2024-02-13T22:08:59.202Z,9.68
2024-02-13T22:11:01.153Z,9.66
2024-02-13T22:13:03.420Z,9.65
2024-02-13T22:15:06.173Z,9.61
2024-02-13T22:17:08.147Z,9.57
2024-02-13T22:19:11.582Z,9.55
2024-02-13T22:21:13.862Z,9.53
2024-02-13T22:23:16.008Z,9.48
2024-02-13T22:25:17.991Z,9.43
2024-02-13T22:27:19.890Z,9.42
2024-02-13T22:29:22.912Z,9.41
2024-02-13T22:31:25.622Z,9.42
2024-02-13T22:33:27.530Z,9.39
2024-02-13T22:35:30.878Z,9.35
2024-02-13T22:37:33.043Z,9.37
2024-02-13T22:39:35.108Z,9.35
2024-02-13T22:41:37.389Z,9.44
2024-02-13T22:43:39.133Z,9.41
2024-02-13T22:45:40.907Z,9.43
2024-02-13T22:47:42.910Z,9.45
2024-02-13T22:49:44.674Z,9.40
2024-02-13T22:51:48.310Z,9.41
2024-02-13T22:53:50.110Z,9.43
2024-02-13T22:55:51.947Z,9.39
2024-02-13T22:57:53.876Z,9.33
2024-02-13T22:59:55.925Z,9.36
2024-02-13T23:01:57.797Z,9.34
2024-02-13T23:03:59.541Z,9.31
2024-02-13T23:06:01.289Z,9.33
2024-02-13T23:08:05.574Z,9.31
2024-02-13T23:10:09.068Z,9.30
2024-02-13T23:12:10.874Z,9.37
2024-02-13T23:14:13.274Z,9.34
2024-02-13T23:16:15.460Z,9.32
2024-02-13T23:18:17.816Z,9.31
2024-02-13T23:20:19.610Z,9.26
2024-02-13T23:22:21.352Z,9.22
2024-02-13T23:24:24.439Z,9.25
2024-02-13T23:26:26.206Z,9.23
2024-02-13T23:28:30.249Z,9.21
2024-02-13T23:30:34.342Z,9.23
2024-02-13T23:32:36.113Z,9.20
2024-02-13T23:34:37.922Z,9.15
2024-02-13T23:36:39.642Z,9.18
2024-02-13T23:38:41.295Z,9.14
2024-02-13T23:40:44.402Z,9.15
2024-02-13T23:42:48.666Z,9.16
2024-02-13T23:44:50.590Z,9.11
2024-02-13T23:46:52.341Z,9.07
2024-02-13T23:48:54.469Z,9.03
2024-02-13T23:50:56.410Z,9.00
2024-02-13T23:52:58.236Z,8.94
2024-02-13T23:55:00.096Z,8.95
2024-02-13T23:57:03.295Z,8.99
2024-02-13T23:59:05.083Z,8.93
